createdAt,value
2023-02-02T00:00:40.554Z,559.00
2023-02-02T00:01:40.534Z,560.00
2023-02-02T00:02:40.564Z,556.00
2023-02-02T00:03:40.538Z,564.00
2023-02-02T00:04:40.475Z,562.00
2023-02-02T00:05:40.457Z,559.00
2023-02-02T00:06:40.438Z,559.00
2023-02-02T00:07:40.402Z,562.00
2023-02-02T00:08:40.390Z,561.00
2023-02-02T01:49:38.541Z,560.00
2023-02-02T01:50:38.533Z,562.00
2023-02-02T01:51:38.517Z,563.00
2023-02-02T01:52:38.506Z,563.00
2023-02-02T01:53:38.585Z,561.00
2023-02-02T01:54:38.487Z,566.00
2023-02-02T01:55:38.486Z,565.00
2023-02-02T01:56:38.465Z,563.00
2023-02-02T01:57:38.443Z,568.00
2023-02-02T01:58:38.441Z,560.00
2023-02-02T01:59:38.450Z,561.00
2023-02-02T02:00:38.420Z,562.00
2023-02-02T02:01:38.422Z,561.00
2023-02-02T02:02:38.384Z,564.00
2023-02-02T02:03:38.355Z,562.00
2023-02-02T02:04:38.411Z,567.00
2023-02-02T02:05:38.324Z,562.00
2023-02-02T02:06:38.293Z,560.00
2023-02-02T02:07:38.282Z,564.00
2023-02-02T02:08:38.253Z,563.00
2023-02-02T02:09:38.235Z,562.00
2023-02-02T02:10:38.226Z,569.00
2023-02-02T02:11:38.194Z,564.00
2023-02-02T02:12:38.186Z,565.00
2023-02-02T02:13:38.230Z,568.00
2023-02-02T02:14:38.139Z,563.00
2023-02-02T02:15:38.131Z,567.00
2023-02-02T02:16:38.174Z,563.00
2023-02-02T02:17:38.083Z,564.00
2023-02-02T02:18:38.054Z,561.00
2023-02-02T02:19:38.042Z,560.00
2023-02-02T02:20:38.045Z,564.00
2023-02-02T02:21:37.989Z,561.00
2023-02-02T02:22:37.970Z,561.00
2023-02-02T02:23:37.960Z,564.00
2023-02-02T02:24:37.929Z,566.00
2023-02-02T02:25:37.914Z,561.00
2023-02-02T02:26:37.935Z,562.00
2023-02-02T02:27:37.865Z,563.00
2023-02-02T02:28:37.835Z,565.00
2023-02-02T02:29:37.805Z,565.00
2023-02-02T02:30:37.906Z,563.00
2023-02-02T02:31:37.829Z,562.00
2023-02-02T02:32:37.718Z,558.00
2023-02-02T02:33:37.690Z,558.00
2023-02-02T02:34:37.655Z,564.00
2023-02-02T02:35:37.633Z,566.00
2023-02-02T02:36:37.579Z,555.00
2023-02-02T02:37:37.546Z,560.00
2023-02-02T02:38:37.519Z,562.00
2023-02-02T02:39:37.475Z,562.00
2023-02-02T02:40:37.445Z,564.00
2023-02-02T02:41:37.413Z,562.00
2023-02-02T02:42:37.384Z,565.00
2023-02-02T02:43:37.348Z,561.00
2023-02-02T02:44:37.317Z,560.00
2023-02-02T02:45:37.271Z,562.00
2023-02-02T02:46:37.226Z,563.00
2023-02-02T02:47:37.190Z,563.00
2023-02-02T02:48:37.145Z,565.00
2023-02-02T02:49:37.168Z,560.00
2023-02-02T02:50:37.066Z,561.00
2023-02-02T02:51:37.006Z,565.00
2023-02-02T02:52:36.970Z,562.00
2023-02-02T02:53:36.911Z,559.00
2023-02-02T02:54:36.855Z,562.00
2023-02-02T02:55:36.804Z,563.00
2023-02-02T02:56:36.759Z,555.00
2023-02-02T02:57:36.706Z,563.00
2023-02-02T02:58:36.641Z,561.00
2023-02-02T02:59:36.585Z,557.00
2023-02-02T03:00:36.561Z,565.00
2023-02-02T03:01:36.516Z,566.00
2023-02-02T03:02:36.460Z,563.00
2023-02-02T03:03:36.376Z,563.00
2023-02-02T03:04:36.321Z,562.00
2023-02-02T03:05:36.276Z,563.00
2023-02-02T03:06:36.224Z,560.00
2023-02-02T03:07:36.163Z,563.00
2023-02-02T03:08:36.095Z,559.00
2023-02-02T03:09:36.051Z,560.00
2023-02-02T03:10:35.985Z,562.00
2023-02-02T03:11:35.947Z,563.00
2023-02-02T03:12:35.861Z,558.00
2023-02-02T03:13:35.853Z,560.00
2023-02-02T03:14:35.741Z,557.00
2023-02-02T03:15:35.729Z,561.00
2023-02-02T03:16:35.607Z,559.00
2023-02-02T03:17:35.543Z,562.00
2023-02-02T03:18:35.506Z,563.00
2023-02-02T03:19:35.421Z,556.00
2023-02-02T03:20:35.364Z,562.00
2023-02-02T03:21:35.307Z,555.00
2023-02-02T03:22:35.246Z,561.00
2023-02-02T03:23:35.166Z,560.00
2023-02-02T03:24:35.100Z,560.00
2023-02-02T03:25:35.030Z,559.00
2023-02-02T03:26:35.034Z,556.00
2023-02-02T03:27:34.895Z,557.00
2023-02-02T03:28:34.831Z,559.00
2023-02-02T03:29:34.778Z,556.00
2023-02-02T03:30:34.701Z,560.00
2023-02-02T03:31:34.661Z,554.00
2023-02-02T03:32:34.540Z,555.00
2023-02-02T03:33:34.473Z,557.00
2023-02-02T03:44:34.615Z,557.00
2023-02-02T05:04:28.274Z,553.00
2023-02-02T05:13:27.826Z,552.00
2023-02-02T05:14:27.764Z,548.00
2023-02-02T05:15:27.726Z,554.00
2023-02-02T05:16:29.137Z,557.00
2023-02-02T05:17:27.641Z,550.00
2023-02-02T05:18:27.629Z,551.00
2023-02-02T05:19:27.597Z,548.00
2023-02-02T05:20:27.556Z,554.00
2023-02-02T05:21:27.591Z,552.00
2023-02-02T05:53:25.686Z,551.00
2023-02-02T05:54:25.643Z,548.00
2023-02-02T05:55:25.890Z,550.00
2023-02-02T05:56:25.494Z,551.00
2023-02-02T05:57:25.448Z,549.00
2023-02-02T05:58:25.354Z,543.00
2023-02-02T05:59:25.267Z,549.00
2023-02-02T06:00:25.197Z,551.00
2023-02-02T06:01:25.124Z,553.00
2023-02-02T06:02:25.078Z,546.00
2023-02-02T06:03:25.098Z,548.00
2023-02-02T06:04:25.006Z,551.00
2023-02-02T06:05:25.514Z,551.00
2023-02-02T06:06:24.802Z,552.00
2023-02-02T06:07:24.743Z,553.00
2023-02-02T06:08:24.698Z,548.00
2023-02-02T06:09:24.607Z,549.00
2023-02-02T06:10:25.168Z,543.00
2023-02-02T06:11:24.462Z,545.00
2023-02-02T06:13:24.682Z,548.00
2023-02-02T07:46:18.021Z,1794.00
2023-02-02T08:05:17.139Z,1986.00
2023-02-02T08:10:16.881Z,2038.00
2023-02-02T08:11:16.831Z,2033.00
2023-02-02T08:12:16.769Z,2051.00
2023-02-02T08:13:16.733Z,2055.00
2023-02-02T08:14:16.667Z,2069.00
2023-02-02T08:15:16.662Z,2070.00
2023-02-02T08:16:16.703Z,2089.00
2023-02-02T08:17:16.553Z,2073.00
2023-02-02T08:18:16.528Z,2078.00
2023-02-02T08:19:16.491Z,2046.00
2023-02-02T08:20:16.403Z,1995.00
2023-02-02T08:21:16.359Z,1989.00
2023-02-02T08:22:16.285Z,1983.00
2023-02-02T08:23:16.309Z,1999.00
2023-02-02T08:24:16.231Z,1992.00
2023-02-02T08:25:16.222Z,1994.00
2023-02-02T08:26:16.186Z,1997.00
2023-02-02T08:27:16.108Z,2001.00
2023-02-02T08:28:16.065Z,1997.00
2023-02-02T08:29:16.015Z,2010.00
2023-02-02T08:30:15.974Z,2009.00
2023-02-02T08:31:16.032Z,2012.00
2023-02-02T08:32:15.880Z,2016.00
2023-02-02T08:33:15.827Z,2026.00
2023-02-02T08:34:15.780Z,2032.00
2023-02-02T08:35:15.733Z,2033.00
2023-02-02T08:36:15.669Z,2040.00
2023-02-02T08:37:16.179Z,2054.00
2023-02-02T08:38:15.563Z,2060.00
2023-02-02T08:39:15.538Z,2058.00
2023-02-02T08:40:15.499Z,2083.00
2023-02-02T08:41:15.405Z,2079.00
2023-02-02T08:42:15.363Z,2088.00
2023-02-02T08:43:16.590Z,2087.00
2023-02-02T08:44:15.230Z,2102.00
2023-02-02T08:46:04.420Z,2097.00
2023-02-02T08:46:16.454Z,2099.00
2023-02-02T08:47:14.965Z,2102.00
2023-02-02T08:48:14.867Z,2116.00
2023-02-02T08:49:14.774Z,2119.00
2023-02-02T08:50:14.666Z,2148.00
2023-02-02T08:51:14.584Z,2147.00
2023-02-02T08:52:14.470Z,2143.00
2023-02-02T09:22:12.793Z,1725.00
2023-02-02T09:23:12.702Z,1715.00
2023-02-02T09:24:12.653Z,1699.00
2023-02-02T09:25:12.541Z,1761.00
2023-02-02T09:26:12.470Z,1191.00
2023-02-02T09:27:12.490Z,937.00
2023-02-02T09:28:12.475Z,1181.00
2023-02-02T09:29:12.400Z,1251.00
2023-02-02T09:30:12.392Z,1214.00
2023-02-02T09:31:12.427Z,1206.00
2023-02-02T09:32:12.390Z,1211.00
2023-02-02T09:33:12.243Z,1207.00
2023-02-02T09:34:12.226Z,1244.00
2023-02-02T09:35:12.092Z,1269.00
2023-02-02T09:36:12.035Z,1274.00
2023-02-02T09:37:12.259Z,1282.00
2023-02-02T09:38:11.883Z,1299.00
2023-02-02T09:39:11.843Z,1302.00
2023-02-02T09:40:11.802Z,1316.00
2023-02-02T09:41:11.779Z,1333.00
2023-02-02T09:42:11.734Z,1354.00
2023-02-02T09:43:11.680Z,1353.00
2023-02-02T09:44:11.631Z,1377.00
2023-02-02T09:45:11.595Z,1398.00
2023-02-02T09:46:11.580Z,1419.00
2023-02-02T09:47:11.758Z,1425.00
2023-02-02T09:48:11.432Z,1436.00
2023-02-02T09:49:11.374Z,1448.00
2023-02-02T09:50:11.389Z,1459.00
2023-02-02T09:51:11.258Z,1476.00
2023-02-02T09:52:11.194Z,1487.00
2023-02-02T09:53:11.124Z,1510.00
2023-02-02T09:54:11.047Z,1516.00
2023-02-02T09:55:10.964Z,1528.00
2023-02-02T09:56:10.879Z,1540.00
2023-02-02T09:57:10.862Z,1553.00
2023-02-02T09:58:10.719Z,1565.00
2023-02-02T09:59:19.938Z,1583.00
2023-02-02T10:00:11.516Z,1584.00
2023-02-02T10:01:10.487Z,1592.00
2023-02-02T10:02:10.292Z,1604.00
2023-02-02T10:03:10.264Z,1631.00
2023-02-02T10:04:10.133Z,1665.00
2023-02-02T10:05:10.755Z,1681.00
2023-02-02T10:06:09.861Z,1688.00
2023-02-02T10:07:09.755Z,1693.00
2023-02-02T10:08:09.639Z,1698.00
2023-02-02T10:09:09.528Z,1688.00
2023-02-02T10:10:09.433Z,1691.00
2023-02-02T10:11:09.313Z,1697.00
2023-02-02T10:12:09.210Z,1730.00
2023-02-02T10:13:09.102Z,1740.00
2023-02-02T10:14:08.964Z,1745.00
2023-02-02T10:15:08.862Z,1758.00
2023-02-02T10:16:08.798Z,1756.00
2023-02-02T10:17:08.654Z,1790.00
2023-02-02T10:18:08.540Z,1776.00
2023-02-02T10:19:08.444Z,1761.00
2023-02-02T10:20:08.327Z,1750.00
2023-02-02T10:21:08.210Z,1687.00
2023-02-02T10:22:08.103Z,1669.00
2023-02-02T10:23:08.002Z,1677.00
2023-02-02T10:24:07.885Z,1670.00
2023-02-02T10:25:07.820Z,1667.00
2023-02-02T10:26:07.745Z,1640.00
2023-02-02T10:27:07.685Z,1649.00
2023-02-02T10:28:07.632Z,1660.00
2023-02-02T10:29:07.558Z,1667.00
2023-02-02T10:30:07.502Z,1670.00
2023-02-02T10:31:07.556Z,1669.00
2023-02-02T10:32:07.452Z,1661.00
2023-02-02T10:33:07.370Z,1656.00
2023-02-02T10:34:07.302Z,1655.00
2023-02-02T10:35:13.797Z,1646.00
2023-02-02T10:36:08.126Z,1647.00
2023-02-02T10:37:07.016Z,1647.00
2023-02-02T10:38:07.461Z,1639.00
2023-02-02T10:39:06.811Z,1636.00
2023-02-02T10:40:06.761Z,1617.00
2023-02-02T10:41:06.603Z,1615.00
2023-02-02T10:42:06.508Z,1613.00
2023-02-02T10:43:06.409Z,1614.00
2023-02-02T10:44:06.301Z,1605.00
2023-02-02T10:45:06.190Z,1596.00
2023-02-02T10:46:06.175Z,1593.00
2023-02-02T10:47:06.040Z,1603.00
2023-02-02T10:48:05.981Z,1586.00
2023-02-02T10:49:05.933Z,1594.00
2023-02-02T10:50:05.825Z,1581.00
2023-02-02T10:51:05.745Z,1589.00
2023-02-02T10:52:05.690Z,1574.00
2023-02-02T10:53:05.576Z,1566.00
2023-02-02T10:54:05.511Z,1570.00
2023-02-02T10:55:05.428Z,1565.00
2023-02-02T10:56:05.322Z,1567.00
2023-02-02T10:57:05.234Z,1560.00
2023-02-02T10:58:05.160Z,1562.00
2023-02-02T10:59:05.070Z,1552.00
2023-02-02T11:00:04.981Z,1559.00
2023-02-02T11:01:04.962Z,1553.00
2023-02-02T11:02:20.076Z,1544.00
2023-02-02T11:03:05.733Z,1545.00
2023-02-02T11:04:04.626Z,1543.00
2023-02-02T11:05:04.520Z,1544.00
2023-02-02T11:06:04.427Z,1526.00
2023-02-02T11:07:04.335Z,1525.00
2023-02-02T11:08:04.241Z,1524.00
2023-02-02T11:09:04.147Z,1512.00
2023-02-02T11:10:04.059Z,1507.00
2023-02-02T11:11:03.965Z,1512.00
2023-02-02T11:12:03.881Z,1503.00
2023-02-02T11:13:03.862Z,1497.00
2023-02-02T11:14:03.698Z,1493.00
2023-02-02T11:15:03.604Z,1494.00
2023-02-02T11:17:03.404Z,1485.00
2023-02-02T11:18:03.325Z,1478.00
2023-02-02T11:19:03.235Z,1482.00
2023-02-02T11:20:03.137Z,1476.00
2023-02-02T11:21:03.037Z,1469.00
2023-02-02T11:22:02.949Z,1468.00
2023-02-02T11:23:02.861Z,1465.00
2023-02-02T11:25:02.680Z,1454.00
2023-02-02T11:26:02.572Z,1448.00
2023-02-02T11:27:02.483Z,1445.00
2023-02-02T11:28:02.386Z,1447.00
2023-02-02T11:29:02.294Z,1450.00
2023-02-02T11:30:02.196Z,1440.00
2023-02-02T11:31:02.269Z,1435.00
2023-02-02T11:32:02.028Z,1438.00
2023-02-02T11:33:01.989Z,1431.00
2023-02-02T11:34:01.855Z,1426.00
2023-02-02T11:35:01.779Z,1406.00
2023-02-02T11:36:01.697Z,1420.00
2023-02-02T11:37:01.613Z,1402.00
2023-02-02T11:38:01.530Z,1406.00
2023-02-02T11:39:01.471Z,1401.00
2023-02-02T11:40:01.400Z,1405.00
2023-02-02T11:41:01.297Z,1393.00
2023-02-02T11:42:01.230Z,1398.00
2023-02-02T11:43:01.142Z,1395.00
2023-02-02T11:44:01.062Z,1391.00
2023-02-02T11:45:01.793Z,1384.00
2023-02-02T11:46:02.872Z,1383.00
2023-02-02T11:47:00.832Z,1384.00
2023-02-02T11:48:00.761Z,1377.00
2023-02-02T11:49:00.711Z,1372.00
2023-02-02T11:50:00.648Z,1373.00
2023-02-02T11:51:00.627Z,1358.00
2023-02-02T11:52:00.473Z,1367.00
2023-02-02T11:53:00.414Z,1363.00
2023-02-02T11:54:00.336Z,1362.00
2023-02-02T11:55:00.272Z,1357.00
2023-02-02T11:56:00.805Z,1352.00
2023-02-02T11:57:00.128Z,1345.00
2023-02-02T11:58:00.045Z,1342.00
2023-02-02T11:59:00.725Z,1342.00
2023-02-02T12:00:02.797Z,1338.00
2023-02-02T12:00:59.855Z,1338.00
2023-02-02T12:01:59.780Z,1332.00
2023-02-02T12:02:59.631Z,1344.00
2023-02-02T12:03:59.574Z,1340.00
2023-02-02T12:04:59.441Z,1334.00
2023-02-02T12:05:59.345Z,1321.00
2023-02-02T12:06:59.253Z,1321.00
2023-02-02T12:07:59.221Z,1316.00
2023-02-02T12:08:59.084Z,1314.00
2023-02-02T12:09:58.998Z,1305.00
2023-02-02T12:10:58.887Z,1311.00
2023-02-02T12:11:58.794Z,1298.00
2023-02-02T12:12:58.705Z,1292.00
2023-02-02T12:13:59.232Z,1307.00
2023-02-02T12:14:58.525Z,1292.00
2023-02-02T12:15:58.527Z,1291.00
2023-02-02T12:16:58.341Z,1278.00
2023-02-02T12:17:58.264Z,1282.00
2023-02-02T12:18:58.167Z,1287.00
2023-02-02T12:19:58.089Z,1268.00
2023-02-02T12:20:57.994Z,1277.00
2023-02-02T12:21:57.955Z,1280.00
2023-02-02T12:22:57.809Z,1265.00
2023-02-02T12:23:57.719Z,1268.00
2023-02-02T12:24:57.640Z,1262.00
2023-02-02T12:25:57.541Z,1261.00
2023-02-02T12:26:57.517Z,1261.00
2023-02-02T12:27:57.340Z,1262.00
2023-02-02T12:28:57.243Z,1254.00
2023-02-02T12:29:57.321Z,1252.00
2023-02-02T12:30:57.139Z,1255.00
2023-02-02T12:31:57.076Z,1244.00
2023-02-02T12:32:56.875Z,1248.00
2023-02-02T12:33:56.786Z,1238.00
2023-02-02T12:34:56.839Z,1231.00
2023-02-02T12:35:56.682Z,1223.00
2023-02-02T12:36:56.514Z,1227.00
2023-02-02T12:37:56.485Z,1227.00
2023-02-02T12:38:56.336Z,1232.00
2023-02-02T12:39:56.235Z,1225.00
2023-02-02T12:40:56.137Z,1225.00
2023-02-02T12:41:56.059Z,1218.00
2023-02-02T12:42:55.982Z,1217.00
2023-02-02T12:43:55.873Z,1213.00
2023-02-02T12:44:55.768Z,1224.00
2023-02-02T12:45:55.846Z,1216.00
2023-02-02T12:46:55.583Z,1222.00
2023-02-02T12:47:55.514Z,1216.00
2023-02-02T12:48:55.398Z,1202.00
2023-02-02T12:49:55.305Z,1205.00
2023-02-02T12:50:55.342Z,1204.00
2023-02-02T12:51:55.196Z,1195.00
2023-02-02T12:52:55.043Z,1188.00
2023-02-02T12:54:32.634Z,1188.00
2023-02-02T12:54:56.825Z,1189.00
2023-02-02T12:55:54.756Z,1190.00
2023-02-02T12:56:54.648Z,1194.00
2023-02-02T12:57:54.556Z,1197.00
2023-02-02T12:58:54.472Z,1172.00
2023-02-02T14:08:49.536Z,1026.00
2023-02-02T15:52:46.566Z,1138.00
2023-02-02T15:53:45.703Z,1148.00
2023-02-02T15:54:45.643Z,1143.00
2023-02-02T15:55:45.564Z,1139.00
2023-02-02T15:56:46.389Z,1135.00
2023-02-02T15:57:45.459Z,1144.00
2023-02-02T15:58:45.365Z,1134.00
2023-02-02T15:59:45.278Z,1141.00
2023-02-02T16:00:45.267Z,1128.00
2023-02-02T16:01:45.173Z,1137.00
2023-02-02T16:02:45.075Z,1129.00
2023-02-02T16:03:45.010Z,1126.00
2023-02-02T16:04:44.962Z,1134.00
2023-02-02T16:05:44.898Z,1129.00
2023-02-02T16:06:44.808Z,1127.00
2023-02-02T16:07:50.567Z,1128.00
2023-02-02T16:08:45.677Z,1129.00
2023-02-02T16:09:44.586Z,1129.00
2023-02-02T16:10:46.559Z,1123.00
2023-02-02T16:11:44.479Z,1131.00
2023-02-02T16:12:44.337Z,1121.00
2023-02-02T16:13:44.270Z,1126.00
2023-02-02T16:14:44.191Z,1124.00
2023-02-02T16:15:44.104Z,1117.00
2023-02-02T16:16:47.009Z,1116.00
2023-02-02T16:17:43.958Z,1122.00
2023-02-02T16:18:43.865Z,1107.00
2023-02-02T16:19:43.781Z,1123.00
2023-02-02T16:20:43.699Z,1103.00
2023-02-02T16:21:43.628Z,1116.00
2023-02-02T16:22:45.884Z,1102.00
2023-02-02T16:23:43.470Z,1103.00
2023-02-02T16:24:43.379Z,1104.00
2023-02-02T17:49:37.016Z,930.00
2023-02-02T17:50:36.947Z,928.00
2023-02-02T17:51:36.857Z,933.00
2023-02-02T17:52:36.795Z,927.00
2023-02-02T17:53:36.779Z,919.00
2023-02-02T17:54:36.642Z,922.00
2023-02-02T17:55:36.581Z,918.00
2023-02-02T17:56:36.503Z,912.00
2023-02-02T17:57:36.465Z,927.00
2023-02-02T17:58:36.356Z,899.00
2023-02-02T17:59:36.285Z,909.00
2023-02-02T18:00:36.210Z,910.00
2023-02-02T18:01:38.281Z,904.00
2023-02-02T18:02:36.111Z,905.00
2023-02-02T18:03:36.939Z,906.00
2023-02-02T18:04:35.963Z,910.00
2023-02-02T18:05:35.844Z,904.00
2023-02-02T18:06:35.774Z,895.00
2023-02-02T18:07:35.702Z,912.00
2023-02-02T18:08:35.630Z,903.00
2023-02-02T18:09:35.556Z,903.00
2023-02-02T18:10:35.463Z,896.00
2023-02-02T18:11:35.429Z,884.00
2023-02-02T18:12:35.317Z,899.00
2023-02-02T18:13:35.251Z,889.00
2023-02-02T18:14:35.176Z,880.00
2023-02-02T18:15:35.218Z,884.00
2023-02-02T18:16:35.039Z,889.00
2023-02-02T18:17:34.975Z,882.00
2023-02-02T18:18:34.917Z,875.00
2023-02-02T18:19:34.862Z,869.00
2023-02-02T18:20:34.744Z,878.00
2023-02-02T18:21:34.668Z,880.00
2023-02-02T18:22:35.443Z,871.00
2023-02-02T18:23:34.543Z,857.00
2023-02-02T18:24:34.463Z,855.00
2023-02-02T18:25:34.377Z,862.00
2023-02-02T18:26:35.004Z,857.00
2023-02-02T18:27:34.228Z,873.00
2023-02-02T18:28:34.160Z,850.00
2023-02-02T18:29:34.086Z,852.00
2023-02-02T18:30:34.105Z,862.00
2023-02-02T18:31:34.012Z,855.00
2023-02-02T18:32:33.876Z,841.00
2023-02-02T18:33:33.774Z,842.00
2023-02-02T18:34:33.688Z,852.00
2023-02-02T18:35:33.624Z,849.00
2023-02-02T18:36:33.528Z,847.00
2023-02-02T18:37:33.963Z,838.00
2023-02-02T18:38:33.383Z,841.00
2023-02-02T19:08:33.680Z,799.00
2023-02-02T19:27:30.174Z,743.00
2023-02-02T19:28:30.092Z,745.00
2023-02-02T19:29:30.051Z,748.00
2023-02-02T19:30:29.994Z,743.00
2023-02-02T19:31:30.045Z,748.00
2023-02-02T19:32:29.893Z,742.00
2023-02-02T19:33:29.820Z,733.00
2023-02-02T19:34:30.526Z,740.00
2023-02-02T19:35:29.709Z,734.00
2023-02-02T19:36:29.647Z,737.00
2023-02-02T19:37:29.594Z,725.00
2023-02-02T19:38:29.538Z,727.00
2023-02-02T19:39:29.495Z,728.00
2023-02-02T19:40:29.519Z,730.00
2023-02-02T19:41:29.370Z,729.00
2023-02-02T19:42:29.373Z,716.00
2023-02-02T19:43:29.252Z,718.00
2023-02-02T19:44:29.203Z,741.00
2023-02-02T19:45:29.144Z,717.00
2023-02-02T19:46:29.151Z,714.00
2023-02-02T19:47:29.040Z,728.00
2023-02-02T19:48:28.987Z,708.00
2023-02-02T19:49:28.921Z,718.00
2023-02-02T19:50:29.094Z,707.00
2023-02-02T19:51:28.808Z,695.00
2023-02-02T19:52:28.753Z,706.00
2023-02-02T19:53:28.687Z,718.00
2023-02-02T19:54:28.654Z,718.00
2023-02-02T19:55:28.595Z,704.00
2023-02-02T19:56:28.588Z,698.00
2023-02-02T19:57:28.490Z,695.00
2023-02-02T19:58:28.496Z,695.00
2023-02-02T19:59:28.373Z,698.00
2023-02-02T20:00:29.026Z,694.00
2023-02-02T20:01:28.281Z,695.00
2023-02-02T20:02:28.227Z,696.00
2023-02-02T20:03:28.199Z,695.00
2023-02-02T20:04:28.124Z,692.00
2023-02-02T20:05:28.062Z,680.00
2023-02-02T20:06:28.014Z,676.00
2023-02-02T20:07:27.975Z,671.00
2023-02-02T20:08:27.916Z,684.00
2023-02-02T20:09:28.836Z,671.00
2023-02-02T20:10:28.265Z,669.00
2023-02-02T20:11:27.829Z,694.00
2023-02-02T20:12:27.698Z,677.00
2023-02-02T20:13:27.632Z,677.00
2023-02-02T20:14:27.644Z,682.00
2023-02-02T20:15:27.901Z,672.00
2023-02-02T20:16:27.582Z,669.00
2023-02-02T20:17:27.428Z,670.00
2023-02-02T20:18:27.387Z,666.00
2023-02-02T20:19:27.373Z,666.00
2023-02-02T20:20:27.595Z,664.00
2023-02-02T20:21:27.234Z,664.00
2023-02-02T20:22:27.181Z,664.00
2023-02-02T20:23:27.148Z,665.00
2023-02-02T20:24:27.070Z,660.00
2023-02-02T20:25:27.071Z,660.00
2023-02-02T20:26:27.043Z,658.00
2023-02-02T20:27:26.917Z,659.00
2023-02-02T20:28:26.872Z,660.00
2023-02-02T20:29:26.839Z,660.00
2023-02-02T20:30:27.140Z,658.00
2023-02-02T20:31:26.785Z,654.00
2023-02-02T20:32:26.753Z,656.00
2023-02-02T20:33:26.643Z,651.00
2023-02-02T20:34:26.604Z,655.00
2023-02-02T20:35:26.548Z,653.00
2023-02-02T20:36:26.503Z,655.00
2023-02-02T20:37:26.451Z,654.00
2023-02-02T20:38:26.408Z,652.00
2023-02-02T20:39:26.363Z,648.00
2023-02-02T20:40:26.590Z,649.00
2023-02-02T20:41:26.259Z,645.00
2023-02-02T20:42:26.218Z,652.00
2023-02-02T20:43:26.168Z,650.00
2023-02-02T20:44:26.135Z,647.00
2023-02-02T20:45:26.080Z,642.00
2023-02-02T20:46:26.046Z,641.00
2023-02-02T20:47:25.992Z,644.00
2023-02-02T20:48:25.955Z,640.00
2023-02-02T20:49:25.916Z,639.00
2023-02-02T20:50:26.217Z,642.00
2023-02-02T20:51:25.809Z,641.00
2023-02-02T20:52:25.767Z,636.00
2023-02-02T20:53:25.727Z,635.00
2023-02-02T20:54:25.699Z,640.00
2023-02-02T20:55:25.635Z,636.00
2023-02-02T20:56:25.581Z,637.00
2023-02-02T20:57:25.532Z,638.00
2023-02-02T20:58:25.618Z,630.00
2023-02-02T20:59:25.453Z,632.00
2023-02-02T21:00:25.771Z,632.00
2023-02-02T21:01:25.406Z,634.00
2023-02-02T21:02:25.354Z,635.00
2023-02-02T21:03:25.282Z,630.00
2023-02-02T21:04:25.253Z,632.00
2023-02-02T21:05:25.237Z,635.00
2023-02-02T21:06:26.778Z,626.00
2023-02-02T21:07:26.033Z,634.00
2023-02-02T21:08:24.999Z,627.00
2023-02-02T21:09:24.919Z,626.00
2023-02-02T21:10:25.261Z,629.00
2023-02-02T21:11:24.787Z,631.00
2023-02-02T21:12:24.689Z,626.00
2023-02-02T21:13:24.606Z,622.00
2023-02-02T21:14:25.022Z,622.00
2023-02-02T21:15:24.439Z,626.00
2023-02-02T21:16:24.440Z,621.00
2023-02-02T21:17:24.313Z,622.00
2023-02-02T21:18:24.214Z,623.00
2023-02-02T21:19:24.144Z,619.00
2023-02-02T21:20:24.226Z,617.00
2023-02-02T21:21:24.043Z,619.00
2023-02-02T21:22:23.917Z,622.00
2023-02-02T21:23:23.843Z,612.00
2023-02-02T21:24:23.786Z,616.00
2023-02-02T21:25:23.699Z,618.00
2023-02-02T21:26:23.655Z,611.00
2023-02-02T21:27:23.651Z,617.00
2023-02-02T21:28:23.459Z,615.00
2023-02-02T21:29:23.399Z,614.00
2023-02-02T21:30:23.312Z,611.00
2023-02-02T21:31:23.439Z,613.00
2023-02-02T21:32:23.158Z,613.00
2023-02-02T21:33:23.076Z,608.00
2023-02-02T21:34:23.022Z,611.00
2023-02-02T21:35:22.939Z,608.00
2023-02-02T21:36:23.517Z,607.00
2023-02-02T21:37:22.799Z,603.00
2023-02-02T21:38:22.741Z,607.00
2023-02-02T21:39:22.669Z,602.00
2023-02-02T21:40:22.577Z,602.00
2023-02-02T21:41:22.509Z,602.00
2023-02-02T21:42:22.526Z,606.00
2023-02-02T21:43:22.363Z,597.00
2023-02-02T21:44:22.306Z,597.00
2023-02-02T21:45:22.227Z,601.00
2023-02-02T21:46:22.278Z,597.00
2023-02-02T21:47:22.107Z,595.00
2023-02-02T21:48:21.992Z,592.00
2023-02-02T21:49:21.955Z,591.00
2023-02-02T21:50:21.915Z,592.00
2023-02-02T21:51:21.880Z,591.00
2023-02-02T21:52:22.034Z,589.00
2023-02-02T21:53:21.815Z,587.00
2023-02-02T21:54:21.793Z,590.00
2023-02-02T21:55:21.732Z,589.00
2023-02-02T21:56:21.697Z,593.00
2023-02-02T21:57:21.674Z,585.00
2023-02-02T21:58:21.630Z,590.00
2023-02-02T21:59:21.586Z,589.00
2023-02-02T22:00:21.630Z,590.00
2023-02-02T22:01:21.544Z,591.00
2023-02-02T22:02:21.474Z,585.00
2023-02-02T22:03:21.425Z,584.00
2023-02-02T22:04:21.396Z,587.00
2023-02-02T22:05:21.367Z,582.00
2023-02-02T22:06:21.317Z,577.00
2023-02-02T22:07:21.268Z,581.00
2023-02-02T22:08:21.243Z,582.00
2023-02-02T22:09:21.207Z,580.00
2023-02-02T22:10:21.168Z,579.00
2023-02-02T22:11:21.131Z,578.00
2023-02-02T22:12:21.089Z,576.00
2023-02-02T22:13:21.061Z,573.00
2023-02-02T22:14:21.016Z,578.00
2023-02-02T22:15:21.011Z,577.00
2023-02-02T22:16:21.058Z,573.00
2023-02-02T22:17:20.906Z,575.00
2023-02-02T22:18:20.874Z,573.00
2023-02-02T22:19:20.846Z,577.00
2023-02-02T22:20:21.532Z,571.00
2023-02-02T22:21:21.275Z,573.00
2023-02-02T22:22:20.734Z,577.00
2023-02-02T22:23:20.706Z,570.00
2023-02-02T22:24:20.660Z,575.00
2023-02-02T22:25:20.642Z,575.00
2023-02-02T22:26:20.600Z,568.00
2023-02-02T22:27:20.590Z,571.00
2023-02-02T22:28:20.656Z,566.00
2023-02-02T22:29:20.508Z,562.00
2023-02-02T22:30:20.511Z,564.00
2023-02-02T22:31:20.549Z,561.00
2023-02-02T22:32:20.407Z,559.00
2023-02-02T22:33:20.370Z,565.00
2023-02-02T22:34:20.338Z,567.00
2023-02-02T22:35:20.309Z,559.00
2023-02-02T22:36:20.273Z,562.00
2023-02-02T22:37:20.258Z,563.00
2023-02-02T22:38:20.215Z,562.00
2023-02-02T22:39:20.180Z,561.00
2023-02-02T22:40:20.151Z,556.00
2023-02-02T22:41:20.134Z,561.00
2023-02-02T22:42:20.080Z,556.00
2023-02-02T22:43:20.057Z,561.00
2023-02-02T22:44:20.022Z,555.00
2023-02-02T22:45:20.000Z,557.00
2023-02-02T22:46:20.000Z,557.00
2023-02-02T22:47:19.948Z,554.00
2023-02-02T22:48:19.891Z,553.00
2023-02-02T22:49:19.864Z,554.00
2023-02-02T22:50:19.823Z,551.00
2023-02-02T22:51:19.798Z,554.00
2023-02-02T22:52:19.770Z,553.00
2023-02-02T22:53:19.718Z,553.00
2023-02-02T22:54:19.676Z,550.00
2023-02-02T22:55:19.663Z,547.00
2023-02-02T22:56:19.606Z,547.00
2023-02-02T22:57:19.586Z,551.00
2023-02-02T22:58:19.567Z,546.00
2023-02-02T22:59:19.519Z,550.00
2023-02-02T23:00:19.496Z,545.00
2023-02-02T23:01:19.455Z,545.00
2023-02-02T23:02:19.449Z,541.00
2023-02-02T23:03:19.389Z,546.00
2023-02-02T23:04:19.368Z,548.00
2023-02-02T23:05:19.338Z,547.00
2023-02-02T23:06:19.298Z,545.00
2023-02-02T23:07:19.411Z,539.00
2023-02-02T23:08:19.254Z,545.00
2023-02-02T23:09:19.213Z,542.00
2023-02-02T23:10:19.189Z,542.00
2023-02-02T23:11:19.177Z,541.00
2023-02-02T23:12:19.171Z,539.00
2023-02-02T23:13:19.110Z,544.00
2023-02-02T23:14:19.102Z,540.00
2023-02-02T23:15:19.054Z,540.00
2023-02-02T23:16:19.235Z,541.00
2023-02-02T23:17:19.003Z,541.00
2023-02-02T23:18:18.968Z,532.00
2023-02-02T23:19:18.954Z,541.00
2023-02-02T23:20:18.957Z,539.00
2023-02-02T23:21:18.911Z,533.00
2023-02-02T23:22:18.872Z,534.00
2023-02-02T23:23:18.837Z,533.00
2023-02-02T23:24:18.811Z,533.00
2023-02-02T23:25:18.816Z,536.00
2023-02-02T23:26:18.815Z,531.00
2023-02-02T23:27:18.733Z,534.00
2023-02-02T23:28:18.742Z,533.00
2023-02-02T23:29:18.681Z,527.00
2023-02-02T23:30:18.677Z,529.00
2023-02-02T23:31:18.787Z,533.00
2023-02-02T23:32:18.593Z,529.00
2023-02-02T23:33:18.566Z,530.00
2023-02-02T23:34:18.539Z,526.00
2023-02-02T23:35:18.510Z,525.00